createdAt,value
2019-05-03T00:02:08.497Z,10.63
2019-05-03T00:04:36.867Z,12.97
2019-05-03T00:07:05.220Z,11.73
2019-05-03T00:09:33.587Z,11.70
2019-05-03T00:12:01.958Z,13.50
2019-05-03T00:14:32.379Z,11.40
2019-05-03T00:17:02.170Z,16.17
2019-05-03T00:19:32.594Z,14.33
2019-05-03T00:22:02.068Z,11.37
2019-05-03T00:24:32.133Z,12.93
2019-05-03T00:27:01.913Z,15.47
2019-05-03T00:29:32.369Z,17.10
2019-05-03T00:32:01.963Z,12.90
2019-05-03T00:34:32.357Z,13.63
2019-05-03T00:37:01.800Z,16.10
2019-05-03T00:39:32.339Z,11.17
2019-05-03T00:42:00.256Z,13.00
2019-05-03T00:44:28.607Z,11.73
2019-05-03T00:46:56.975Z,13.17
2019-05-03T00:49:25.246Z,17.67
2019-05-03T00:51:53.546Z,14.23
2019-05-03T00:54:22.316Z,16.97
2019-05-03T00:56:52.248Z,10.93
2019-05-03T00:59:22.164Z,11.10
2019-05-03T01:01:52.181Z,14.03
2019-05-03T01:04:22.247Z,11.80
2019-05-03T01:06:52.563Z,12.93
2019-05-03T01:09:22.469Z,16.13
2019-05-03T01:11:52.465Z,12.13
2019-05-03T01:14:22.551Z,11.37
2019-05-03T01:16:52.209Z,12.43
2019-05-03T01:19:22.582Z,10.50
2019-05-03T01:21:51.530Z,8.00
2019-05-03T01:24:21.637Z,13.80
2019-05-03T01:26:50.142Z,12.30
2019-05-03T01:29:18.415Z,14.00
2019-05-03T01:31:46.723Z,11.33
2019-05-03T01:34:14.993Z,9.77
2019-05-03T01:36:43.297Z,8.83
2019-05-03T01:39:12.786Z,8.10
2019-05-03T01:41:41.708Z,8.97
2019-05-03T01:44:10.069Z,9.00
2019-05-03T01:46:38.375Z,11.70
2019-05-03T01:49:06.678Z,8.00
2019-05-03T01:51:34.953Z,10.00
2019-05-03T01:54:03.414Z,11.40
2019-05-03T01:56:31.748Z,8.93
2019-05-03T01:59:01.778Z,10.40
2019-05-03T02:01:31.604Z,8.67
2019-05-03T02:03:59.962Z,11.73
2019-05-03T02:06:28.234Z,11.83
2019-05-03T02:08:56.595Z,12.00
2019-05-03T02:11:24.872Z,10.90
2019-05-03T02:13:53.175Z,12.00
2019-05-03T02:16:21.897Z,13.87
2019-05-03T02:18:51.849Z,15.67
2019-05-03T02:21:21.627Z,13.83
2019-05-03T02:23:51.919Z,13.47
2019-05-03T02:26:20.102Z,14.67
2019-05-03T02:28:48.389Z,14.37
2019-05-03T02:31:16.732Z,14.23
2019-05-03T02:33:45.043Z,15.13
2019-05-03T02:36:13.866Z,14.37
2019-05-03T02:38:43.084Z,11.90
2019-05-03T02:41:13.472Z,13.77
2019-05-03T02:43:41.726Z,15.60
2019-05-03T02:46:10.029Z,16.23
2019-05-03T02:48:38.409Z,17.70
2019-05-03T02:51:06.841Z,14.60
2019-05-03T02:53:36.017Z,19.63
2019-05-03T02:56:15.179Z,21.20
2019-05-03T02:58:35.858Z,19.93
2019-05-03T03:01:06.589Z,17.23
2019-05-03T03:03:36.263Z,18.23
2019-05-03T03:06:06.702Z,18.27
2019-05-03T03:08:36.871Z,21.70
2019-05-03T03:11:07.001Z,18.10
2019-05-03T03:13:36.831Z,20.90
2019-05-03T03:16:06.938Z,18.97
2019-05-03T03:21:10.252Z,17.13
2019-05-03T03:23:40.069Z,19.80
2019-05-03T03:26:09.558Z,21.20
2019-05-03T03:28:39.372Z,23.60
2019-05-03T03:31:21.238Z,22.17
2019-05-03T03:33:49.575Z,18.57
2019-05-03T03:36:50.446Z,20.90
2019-05-03T03:38:48.201Z,20.57
2019-05-03T03:41:17.171Z,17.47
2019-05-03T03:43:47.045Z,20.17
2019-05-03T03:46:15.954Z,17.63
2019-05-03T03:48:46.078Z,20.83
2019-05-03T03:51:15.561Z,14.33
2019-05-03T03:53:46.507Z,21.43
2019-05-03T03:56:15.989Z,19.13
2019-05-03T03:58:46.457Z,18.70
2019-05-03T04:01:15.694Z,20.37
2019-05-03T04:03:45.977Z,18.43
2019-05-03T04:06:15.379Z,15.73
2019-05-03T04:08:45.330Z,16.03
2019-05-03T04:11:15.574Z,19.37
2019-05-03T04:13:45.157Z,23.07
2019-05-03T04:16:20.329Z,25.63
2019-05-03T04:18:45.522Z,20.75
2019-05-03T04:21:16.194Z,18.87
2019-05-03T04:23:45.834Z,18.57
2019-05-03T04:26:16.233Z,24.40
2019-05-03T04:28:45.340Z,20.25
2019-05-03T04:31:15.272Z,18.93
2019-05-03T04:33:45.049Z,19.10
2019-05-03T04:36:15.765Z,16.73
2019-05-03T04:38:45.337Z,16.47
2019-05-03T04:41:15.794Z,18.70
2019-05-03T04:43:45.839Z,16.03
2019-05-03T04:46:16.198Z,20.07
2019-05-03T04:48:44.901Z,15.87
2019-05-03T04:51:13.327Z,17.95
2019-05-03T04:53:41.642Z,15.27
2019-05-03T04:56:09.935Z,18.17
2019-05-03T04:58:38.335Z,20.20
2019-05-03T05:01:06.720Z,15.77
2019-05-03T05:03:36.094Z,18.23
2019-05-03T05:06:06.282Z,18.70
2019-05-03T05:08:35.848Z,13.47
2019-05-03T05:11:05.811Z,18.43
2019-05-03T05:13:35.621Z,15.40
2019-05-03T05:16:05.882Z,14.63
2019-05-03T05:18:37.596Z,16.07
2019-05-03T05:21:05.962Z,16.30
2019-05-03T05:23:35.386Z,10.73
2019-05-03T05:26:05.553Z,15.00
2019-05-03T05:28:36.282Z,9.53
2019-05-03T05:31:04.807Z,10.23
2019-05-03T05:33:35.233Z,9.50
2019-05-03T05:36:04.827Z,8.07
2019-05-03T05:38:34.644Z,10.93
2019-05-03T05:41:05.151Z,9.17
2019-05-03T05:43:33.101Z,10.68
2019-05-03T05:46:01.394Z,8.33
2019-05-03T05:48:29.655Z,9.47
2019-05-03T05:50:57.957Z,8.63
2019-05-03T05:53:26.236Z,10.50
2019-05-03T05:55:54.960Z,7.90
2019-05-03T05:58:25.741Z,8.30
2019-05-03T06:00:55.150Z,6.53
2019-05-03T06:03:25.144Z,7.10
2019-05-03T06:05:54.890Z,7.67
2019-05-03T06:08:25.007Z,5.37
2019-05-03T06:10:55.263Z,6.27
2019-05-03T06:13:23.247Z,6.90
2019-05-03T06:15:51.643Z,9.00
2019-05-03T06:18:19.927Z,6.58
2019-05-03T06:20:48.300Z,9.63
2019-05-03T06:23:16.570Z,7.63
2019-05-03T06:25:45.376Z,7.17
2019-05-03T06:28:18.381Z,9.03
2019-05-03T06:30:45.413Z,7.37
2019-05-03T06:33:14.406Z,4.90
2019-05-03T06:35:44.473Z,7.17
2019-05-03T06:38:12.891Z,3.23
2019-05-03T06:40:41.160Z,6.50
2019-05-03T06:43:12.771Z,5.83
2019-05-03T06:45:41.118Z,5.40
2019-05-03T06:48:09.424Z,9.03
2019-05-03T06:50:37.705Z,7.42
2019-05-03T06:53:12.657Z,7.60
2019-05-03T06:55:40.041Z,4.77
2019-05-03T06:58:06.073Z,8.73
2019-05-03T07:00:35.130Z,5.85
2019-05-03T07:03:04.908Z,6.30
2019-05-03T07:05:35.355Z,3.90
2019-05-03T07:08:05.155Z,8.73
2019-05-03T07:10:35.250Z,6.40
2019-05-03T07:13:04.986Z,6.07
2019-05-03T07:15:35.116Z,3.60
2019-05-03T07:18:05.577Z,8.07
2019-05-03T07:20:35.325Z,6.90
2019-05-03T07:23:04.365Z,8.43
2019-05-03T07:25:34.353Z,6.10
2019-05-03T07:28:04.413Z,5.47
2019-05-03T07:30:35.155Z,6.10
2019-05-03T07:33:04.741Z,7.33
2019-05-03T07:35:32.806Z,8.90
2019-05-03T07:38:01.131Z,5.37
2019-05-03T07:40:29.626Z,5.67
2019-05-03T07:42:57.905Z,5.70
2019-05-03T07:45:26.253Z,5.73
2019-05-03T07:47:55.794Z,6.90
2019-05-03T07:50:25.780Z,4.50
2019-05-03T07:52:55.575Z,8.35
2019-05-03T07:55:24.979Z,10.05
2019-05-03T07:57:55.172Z,7.22
2019-05-03T08:00:25.195Z,6.83
2019-05-03T08:02:54.999Z,5.33
2019-05-03T08:05:24.678Z,7.37
2019-05-03T08:07:55.244Z,7.93
2019-05-03T08:10:25.447Z,6.43
2019-05-03T08:12:54.418Z,6.87
2019-05-03T08:15:24.533Z,5.73
2019-05-03T08:17:52.919Z,4.80
2019-05-03T08:20:21.222Z,9.57
2019-05-03T08:22:49.525Z,9.18
2019-05-03T08:25:17.900Z,7.78
2019-05-03T08:27:46.153Z,5.73
2019-05-03T08:30:14.788Z,6.60
2019-05-03T08:32:44.544Z,3.73
2019-05-03T08:35:15.101Z,6.95
2019-05-03T08:37:45.166Z,7.23
2019-05-03T08:40:13.112Z,7.73
2019-05-03T08:42:41.382Z,8.67
2019-05-03T08:45:09.749Z,6.63
2019-05-03T08:47:38.027Z,6.08
2019-05-03T08:50:06.402Z,6.50
2019-05-03T08:52:34.838Z,6.10
2019-05-03T08:55:05.234Z,7.33
2019-05-03T08:57:35.451Z,5.97
2019-05-03T09:00:05.371Z,6.92
2019-05-03T09:02:34.613Z,7.17
2019-05-03T09:05:05.164Z,7.10
2019-05-03T09:07:35.433Z,6.47
2019-05-03T09:10:05.418Z,5.57
2019-05-03T09:12:34.348Z,5.63
2019-05-03T09:15:04.780Z,8.20
2019-05-03T09:17:35.185Z,9.03
2019-05-03T09:20:05.204Z,5.70
2019-05-03T09:22:34.845Z,6.40
2019-05-03T09:25:04.945Z,5.20
2019-05-03T09:27:34.433Z,3.83
2019-05-03T09:30:05.060Z,4.40
2019-05-03T09:32:34.997Z,9.30
2019-05-03T09:35:05.539Z,6.67
2019-05-03T09:37:35.421Z,5.97
2019-05-03T09:40:04.570Z,4.30
2019-05-03T09:42:35.113Z,7.20
2019-05-03T09:45:04.927Z,4.53
2019-05-03T09:47:35.264Z,4.77
2019-05-03T09:50:04.962Z,6.83
2019-05-03T09:52:35.511Z,6.73
2019-05-03T09:55:06.360Z,7.07
2019-05-03T09:57:34.773Z,4.20
2019-05-03T10:00:04.957Z,7.87
2019-05-03T10:02:35.219Z,8.10
2019-05-03T10:05:04.349Z,6.23
2019-05-03T10:07:34.957Z,5.70
2019-05-03T10:10:05.630Z,8.40
2019-05-03T10:12:33.706Z,6.40
2019-05-03T10:15:02.107Z,4.50
2019-05-03T10:17:30.482Z,7.80
2019-05-03T10:19:58.776Z,7.97
2019-05-03T10:22:27.347Z,9.10
2019-05-03T10:24:55.761Z,9.70
2019-05-03T10:27:25.153Z,6.27
2019-05-03T10:29:55.946Z,7.20
2019-05-03T10:32:25.385Z,4.30
2019-05-03T10:34:53.895Z,5.73
2019-05-03T10:37:24.384Z,4.97
2019-05-03T10:39:52.814Z,6.07
2019-05-03T10:42:22.092Z,4.20
2019-05-03T10:44:51.945Z,6.23
2019-05-03T10:47:20.292Z,8.40
2019-05-03T10:49:48.759Z,5.33
2019-05-03T10:52:17.144Z,5.53
2019-05-03T10:54:45.923Z,4.13
2019-05-03T10:57:15.916Z,5.63
2019-05-03T10:59:44.845Z,6.67
2019-05-03T11:02:13.315Z,4.90
2019-05-03T11:04:43.715Z,7.80
2019-05-03T11:07:11.894Z,7.30
2019-05-03T11:09:48.669Z,5.13
2019-05-03T11:12:10.216Z,8.13
2019-05-03T11:14:38.569Z,7.77
2019-05-03T11:17:06.921Z,3.23
2019-05-03T11:19:35.379Z,8.20
2019-05-03T11:22:05.453Z,6.35
2019-05-03T11:24:34.945Z,5.30
2019-05-03T11:27:03.470Z,5.33
2019-05-03T11:29:31.900Z,8.53
2019-05-03T11:32:00.409Z,5.83
2019-05-03T11:34:28.915Z,6.40
2019-05-03T11:36:57.456Z,5.63
2019-05-03T11:39:25.909Z,5.13
2019-05-03T11:41:54.435Z,5.70
2019-05-03T11:44:24.551Z,10.17
2019-05-03T11:46:55.076Z,4.00
2019-05-03T11:49:25.429Z,5.47
2019-05-03T11:51:55.662Z,8.10
2019-05-03T11:54:24.958Z,4.47
2019-05-03T11:57:05.074Z,5.22
2019-05-03T11:59:31.448Z,5.97
2019-05-03T12:02:00.321Z,6.37
2019-05-03T12:04:28.733Z,5.47
2019-05-03T12:06:57.150Z,6.63
2019-05-03T12:09:25.680Z,5.63
2019-05-03T12:11:55.307Z,4.47
2019-05-03T12:14:24.505Z,6.77
2019-05-03T12:17:13.127Z,7.27
2019-05-03T12:19:30.453Z,3.27
2019-05-03T12:21:54.062Z,6.03
2019-05-03T12:24:23.143Z,5.03
2019-05-03T12:26:52.428Z,6.07
2019-05-03T12:29:20.823Z,4.90
2019-05-03T12:31:50.531Z,3.83
2019-05-03T12:34:19.070Z,5.22
2019-05-03T12:36:47.628Z,10.33
2019-05-03T12:39:26.283Z,5.23
2019-05-03T12:41:48.140Z,8.57
2019-05-03T12:44:16.094Z,6.53
2019-05-03T12:46:45.001Z,5.12
2019-05-03T12:49:15.442Z,5.43
2019-05-03T12:51:45.304Z,7.07
2019-05-03T12:54:15.268Z,4.63
2019-05-03T12:56:45.334Z,7.15
2019-05-03T12:59:15.925Z,6.77
2019-05-03T13:01:45.295Z,4.00
2019-05-03T13:04:15.315Z,7.20
2019-05-03T13:06:45.369Z,7.33
2019-05-03T13:09:15.886Z,5.90
2019-05-03T13:11:52.939Z,7.53
2019-05-03T13:14:15.685Z,6.43
2019-05-03T13:16:44.523Z,6.13
2019-05-03T13:19:15.109Z,6.60
2019-05-03T13:21:45.039Z,5.47
2019-05-03T13:24:22.877Z,6.37
2019-05-03T13:26:45.725Z,4.70
2019-05-03T13:29:15.270Z,11.00
2019-05-03T13:31:57.472Z,7.43
2019-05-03T13:34:15.559Z,5.97
2019-05-03T13:36:45.677Z,6.63
2019-05-03T13:39:14.684Z,3.80
2019-05-03T13:41:45.341Z,6.27
2019-05-03T13:44:13.377Z,6.60
2019-05-03T13:46:41.791Z,4.63
2019-05-03T13:49:10.259Z,6.27
2019-05-03T13:51:38.842Z,6.27
2019-05-03T13:54:07.206Z,7.03
2019-05-03T13:56:35.580Z,10.83
2019-05-03T13:59:04.654Z,5.50
2019-05-03T14:01:34.199Z,6.17
2019-05-03T14:04:02.588Z,9.00
2019-05-03T14:06:33.554Z,10.23
2019-05-03T14:09:01.046Z,6.23
2019-05-03T14:11:29.450Z,7.67
2019-05-03T14:13:57.881Z,6.87
2019-05-03T14:16:26.271Z,9.30
2019-05-03T14:18:54.877Z,8.50
2019-05-03T14:21:24.502Z,8.37
2019-05-03T14:23:52.858Z,7.53
2019-05-03T14:26:21.221Z,6.30
2019-05-03T14:28:49.715Z,5.20
2019-05-03T14:31:18.088Z,7.43
2019-05-03T14:33:46.449Z,6.20
2019-05-03T14:36:16.142Z,8.30
2019-05-03T14:38:46.901Z,5.40
2019-05-03T14:41:15.078Z,6.73
2019-05-03T14:43:43.705Z,7.40
2019-05-03T14:46:12.092Z,8.13
2019-05-03T14:48:40.375Z,5.30
2019-05-03T14:51:08.671Z,4.97
2019-05-03T14:53:36.944Z,4.53
2019-05-03T14:56:07.849Z,7.70
2019-05-03T14:58:35.479Z,8.57
2019-05-03T15:01:04.799Z,9.70
2019-05-03T15:03:34.767Z,10.40
2019-05-03T15:06:05.181Z,8.00
2019-05-03T15:08:34.993Z,5.87
2019-05-03T15:11:05.291Z,8.37
2019-05-03T15:13:34.967Z,8.47
2019-05-03T15:16:05.230Z,8.60
2019-05-03T15:18:34.856Z,5.47
2019-05-03T15:21:05.347Z,6.53
2019-05-03T15:23:34.759Z,8.10
2019-05-03T15:26:05.183Z,11.27
2019-05-03T15:28:35.401Z,6.73
2019-05-03T15:31:04.548Z,6.40
2019-05-03T15:33:35.152Z,12.83
2019-05-03T15:36:04.740Z,10.03
2019-05-03T15:38:34.672Z,11.97
2019-05-03T15:41:05.190Z,8.30
2019-05-03T15:43:34.790Z,7.03
2019-05-03T15:46:05.184Z,5.23
2019-05-03T15:48:35.166Z,6.93
2019-05-03T15:51:04.666Z,7.47
2019-05-03T15:53:35.212Z,8.10
2019-05-03T15:56:05.244Z,6.17
2019-05-03T15:58:33.329Z,8.73
2019-05-03T16:01:01.898Z,8.23
2019-05-03T16:03:30.249Z,7.50
2019-05-03T16:05:58.600Z,7.37
2019-05-03T16:08:26.950Z,6.83
2019-05-03T16:10:55.310Z,10.17
2019-05-03T16:13:25.272Z,6.60
2019-05-03T16:15:55.205Z,10.30
2019-05-03T16:18:24.569Z,6.47
2019-05-03T16:20:54.567Z,10.77
2019-05-03T16:23:25.068Z,5.10
2019-05-03T16:25:54.372Z,7.23
2019-05-03T16:28:24.850Z,6.67
2019-05-03T16:30:55.280Z,9.47
2019-05-03T16:33:27.620Z,8.33
2019-05-03T16:35:54.915Z,8.23
2019-05-03T16:38:24.881Z,10.17
2019-05-03T16:40:54.549Z,8.23
2019-05-03T16:43:22.993Z,8.97
2019-05-03T16:45:51.371Z,6.00
2019-05-03T16:48:19.722Z,9.07
2019-05-03T16:50:48.183Z,8.23
2019-05-03T16:53:16.689Z,6.63
2019-05-03T16:55:45.057Z,9.10
2019-05-03T16:58:14.953Z,10.07
2019-05-03T17:00:44.710Z,7.77
2019-05-03T17:03:15.050Z,10.40
2019-05-03T17:05:45.102Z,7.97
2019-05-03T17:08:14.715Z,7.50
2019-05-03T17:10:43.221Z,6.37
2019-05-03T17:13:14.836Z,8.40
2019-05-03T17:15:47.306Z,8.33
2019-05-03T17:18:17.241Z,6.30
2019-05-03T17:20:45.793Z,8.57
2019-05-03T17:23:15.449Z,7.47
2019-05-03T17:25:44.505Z,7.80
2019-05-03T17:28:12.879Z,6.70
2019-05-03T17:30:41.196Z,7.97
2019-05-03T17:33:09.577Z,7.00
2019-05-03T17:35:38.995Z,5.93
2019-05-03T17:38:07.448Z,10.27
2019-05-03T17:40:35.796Z,5.87
2019-05-03T17:43:05.058Z,9.37
2019-05-03T17:45:35.092Z,8.03
2019-05-03T17:48:04.518Z,33.63
2019-05-03T17:50:34.754Z,12.67
2019-05-03T17:53:05.153Z,8.17
2019-05-03T17:55:35.112Z,8.67
2019-05-03T17:58:04.539Z,8.87
2019-05-03T18:00:34.841Z,6.47
2019-05-03T18:03:04.725Z,9.80
2019-05-03T18:05:34.462Z,7.40
2019-05-03T18:08:03.021Z,9.63
2019-05-03T18:10:31.371Z,7.90
2019-05-03T18:12:59.667Z,7.37
2019-05-03T18:15:28.041Z,11.40
2019-05-03T18:17:56.442Z,7.73
2019-05-03T18:20:25.570Z,7.30
2019-05-03T18:22:54.650Z,8.80
2019-05-03T18:25:24.876Z,11.97
2019-05-03T18:27:55.167Z,12.60
2019-05-03T18:30:23.686Z,9.47
2019-05-03T18:32:52.166Z,9.33
2019-05-03T18:35:20.607Z,11.23
2019-05-03T18:37:48.995Z,9.63
2019-05-03T18:40:17.449Z,11.40
2019-05-03T18:42:46.154Z,11.20
2019-05-03T18:45:14.984Z,11.77
2019-05-03T18:47:45.020Z,8.00
2019-05-03T18:50:13.524Z,8.17
2019-05-03T18:52:41.894Z,12.23
2019-05-03T18:55:10.292Z,9.77
2019-05-03T18:57:38.661Z,9.23
2019-05-03T19:00:08.167Z,14.40
2019-05-03T19:02:37.368Z,11.30
2019-05-03T19:05:06.273Z,12.43
2019-05-03T19:07:34.796Z,13.93
2019-05-03T19:10:05.065Z,13.00
2019-05-03T19:12:35.569Z,9.80
2019-05-03T19:15:05.292Z,10.70
2019-05-03T19:17:35.516Z,10.77
2019-05-03T19:20:05.080Z,11.50
2019-05-03T19:22:34.411Z,11.93
2019-05-03T19:25:03.973Z,7.80
2019-05-03T19:27:32.275Z,9.70
2019-05-03T19:30:00.590Z,8.85
2019-05-03T19:32:28.944Z,9.33
2019-05-03T19:34:57.301Z,9.43
2019-05-03T19:37:25.954Z,9.80
2019-05-03T19:39:55.232Z,11.13
2019-05-03T19:42:26.943Z,9.63
2019-05-03T19:44:55.280Z,10.20
2019-05-03T19:47:25.227Z,10.20
2019-05-03T19:49:54.688Z,11.27
2019-05-03T19:52:25.284Z,8.27
2019-05-03T19:54:55.318Z,13.20
2019-05-03T19:57:24.392Z,8.43
2019-05-03T19:59:56.322Z,8.43
2019-05-03T20:02:24.488Z,6.93
2019-05-03T20:04:58.458Z,8.73
2019-05-03T20:07:25.056Z,7.03
2019-05-03T20:09:54.384Z,7.30
2019-05-03T20:12:24.539Z,6.93
2019-05-03T20:14:54.617Z,6.97
2019-05-03T20:17:23.132Z,7.60
2019-05-03T20:19:51.422Z,7.83
2019-05-03T20:22:19.800Z,6.10
2019-05-03T20:24:48.090Z,5.83
2019-05-03T20:27:16.563Z,5.80
2019-05-03T20:29:46.279Z,7.00
2019-05-03T20:32:15.911Z,7.17
2019-05-03T20:34:44.583Z,6.90
2019-05-03T20:37:14.712Z,8.60
2019-05-03T20:39:43.198Z,6.07
2019-05-03T20:42:11.585Z,6.57
2019-05-03T20:44:39.939Z,8.37
2019-05-03T20:47:08.333Z,7.80
2019-05-03T20:49:36.716Z,6.63
2019-05-03T20:52:05.163Z,8.10
2019-05-03T20:54:35.009Z,7.20
2019-05-03T20:57:05.299Z,11.77
2019-05-03T20:59:42.896Z,9.67
2019-05-03T21:02:05.880Z,8.37
2019-05-03T21:04:35.356Z,9.13
2019-05-03T21:07:04.976Z,11.47
2019-05-03T21:09:34.543Z,8.70
2019-05-03T21:12:04.480Z,12.13
2019-05-03T21:14:34.890Z,10.33
2019-05-03T21:17:04.576Z,10.13
2019-05-03T21:19:35.183Z,10.57
2019-05-03T21:22:03.164Z,8.73
2019-05-03T21:24:31.539Z,11.30
2019-05-03T21:26:59.833Z,6.97
2019-05-03T21:29:28.306Z,8.90
2019-05-03T21:31:56.630Z,8.40
2019-05-03T21:34:25.210Z,8.83
2019-05-03T21:36:54.523Z,12.07
2019-05-03T21:39:24.697Z,12.63
2019-05-03T21:41:53.196Z,11.87
2019-05-03T21:44:21.537Z,14.50
2019-05-03T21:46:49.832Z,12.63
2019-05-03T21:49:18.278Z,12.77
2019-05-03T21:51:46.651Z,14.93
2019-05-03T21:54:15.422Z,13.20
2019-05-03T21:56:44.751Z,14.67
2019-05-03T21:59:13.210Z,9.87
2019-05-03T22:01:41.570Z,16.80
2019-05-03T22:04:09.993Z,12.43
2019-05-03T22:06:38.421Z,13.30
2019-05-03T22:09:06.776Z,14.30
2019-05-03T22:11:35.115Z,13.87
2019-05-03T22:14:04.891Z,16.43
2019-05-03T22:16:34.537Z,12.80
2019-05-03T22:19:03.017Z,17.13
2019-05-03T22:21:31.354Z,14.17
2019-05-03T22:23:59.663Z,19.37
2019-05-03T22:26:28.049Z,18.63
2019-05-03T22:28:56.397Z,16.13
2019-05-03T22:31:26.772Z,18.67
2019-05-03T22:33:55.141Z,20.57
2019-05-03T22:36:24.558Z,19.93
2019-05-03T22:38:54.452Z,28.07
2019-05-03T22:41:22.903Z,25.07
2019-05-03T22:43:51.258Z,19.17
2019-05-03T22:46:19.568Z,24.53
2019-05-03T22:48:47.952Z,19.10
2019-05-03T22:51:19.120Z,23.57
2019-05-03T22:53:47.609Z,23.63
2019-05-03T22:56:16.088Z,26.33
2019-05-03T22:58:45.732Z,18.37
2019-05-03T23:01:16.430Z,27.10
2019-05-03T23:03:44.843Z,27.83
2019-05-03T23:06:20.402Z,21.73
2019-05-03T23:08:43.483Z,18.47
2019-05-03T23:11:11.835Z,21.30
2019-05-03T23:13:40.230Z,20.40
2019-05-03T23:16:08.679Z,21.07
2019-05-03T23:18:37.023Z,18.20
2019-05-03T23:21:05.387Z,19.47
2019-05-03T23:23:35.624Z,18.93
2019-05-03T23:26:04.504Z,19.43
2019-05-03T23:28:32.854Z,22.27
2019-05-03T23:31:01.208Z,20.33
2019-05-03T23:33:29.514Z,18.60
2019-05-03T23:35:59.157Z,21.53
2019-05-03T23:38:27.576Z,19.40
2019-05-03T23:40:55.931Z,19.30
2019-05-03T23:43:25.162Z,19.40
2019-05-03T23:45:54.581Z,20.00
2019-05-03T23:48:23.052Z,18.57
2019-05-03T23:50:51.356Z,22.00
2019-05-03T23:53:19.732Z,19.53
2019-05-03T23:55:48.046Z,22.73
2019-05-03T23:58:16.361Z,18.87
